Time;durP1;ratioP1;P1;durP2;ratioP2;P2;SDS_P1;SDS_P2;PMS_P1;PMS_P2;Temp;Humidity;BMP_temperature;BMP_pressure;BME280_temperature;BME280_humidity;BME280_pressure;Samples;Min_cycle;Max_cycle;Signal;HPM_P1;HPM_P2
2021/12/28 00:01:28;;;;;;;29.02;7.25;;;8.40;99.90;;;;;;5069202;28;20115;-66
2021/12/28 00:03:54;;;;;;;23.05;8.05;;;8.40;99.90;;;;;;5068192;28;20140;-68
2021/12/28 00:06:20;;;;;;;23.92;6.68;;;8.40;99.90;;;;;;5067913;28;20035;-69
2021/12/28 00:08:46;;;;;;;24.30;7.43;;;8.30;99.90;;;;;;5069391;28;20036;-66
2021/12/28 00:11:13;;;;;;;22.70;7.78;;;8.30;99.90;;;;;;5068786;28;20035;-66
2021/12/28 00:13:40;;;;;;;22.80;7.78;;;8.20;99.90;;;;;;5068277;28;20041;-65
2021/12/28 00:18:37;;;;;;;21.25;6.30;;;8.20;99.90;;;;;;5071346;28;20028;-66
2021/12/28 00:21:05;;;;;;;21.77;6.68;;;8.20;99.90;;;;;;5071861;28;20127;-68
2021/12/28 00:23:38;;;;;;;19.77;7.15;;;8.20;99.90;;;;;;5072358;28;20043;-66
2021/12/28 00:26:06;;;;;;;18.27;5.72;;;8.10;99.90;;;;;;5073589;28;20119;-66
2021/12/28 00:28:32;;;;;;;22.17;5.85;;;8.10;99.90;;;;;;5072752;28;20124;-66
2021/12/28 00:30:58;;;;;;;21.23;5.88;;;8.10;99.90;;;;;;5072955;28;20123;-67
2021/12/28 00:33:25;;;;;;;18.38;6.00;;;8.10;99.90;;;;;;5071330;28;20488;-66
2021/12/28 00:35:51;;;;;;;19.23;6.05;;;8.10;99.90;;;;;;5072837;28;20115;-66
2021/12/28 00:38:21;;;;;;;38.85;7.28;;;8.00;99.90;;;;;;5072411;28;20028;-65
2021/12/28 00:40:49;;;;;;;18.37;5.53;;;8.10;99.90;;;;;;5072753;28;20048;-66
2021/12/28 00:43:15;;;;;;;29.58;6.55;;;8.10;99.90;;;;;;5070576;28;20036;-66
2021/12/28 00:45:40;;;;;;;17.05;4.82;;;8.00;99.90;;;;;;5072798;28;20040;-65
2021/12/28 00:48:06;;;;;;;16.65;5.75;;;8.00;99.90;;;;;;5072536;28;20044;-67
2021/12/28 00:50:32;;;;;;;25.55;4.82;;;8.00;99.90;;;;;;5071909;28;20033;-66
2021/12/28 00:52:57;;;;;;;21.98;5.93;;;8.00;99.90;;;;;;5072444;28;20053;-66
2021/12/28 00:55:24;;;;;;;19.63;5.18;;;8.00;99.90;;;;;;5071683;28;20120;-66
2021/12/28 00:57:50;;;;;;;19.02;4.78;;;8.00;99.90;;;;;;5072954;28;20729;-67
2021/12/28 01:00:19;;;;;;;24.48;6.22;;;8.00;99.90;;;;;;5072117;28;20047;-66
2021/12/28 01:02:45;;;;;;;24.58;6.35;;;8.00;99.90;;;;;;5072455;28;20484;-65
2021/12/28 01:05:12;;;;;;;21.13;4.72;;;8.00;99.90;;;;;;5072113;28;20180;-66
2021/12/28 01:07:38;;;;;;;30.35;6.10;;;8.10;99.90;;;;;;5072287;28;20111;-66
2021/12/28 01:10:07;;;;;;;33.80;5.03;;;8.10;99.90;;;;;;5070897;28;20814;-66
2021/12/28 01:12:33;;;;;;;18.85;4.80;;;8.20;99.90;;;;;;5071955;28;20111;-65
2021/12/28 01:14:59;;;;;;;20.88;4.88;;;8.20;99.90;;;;;;5071999;28;20062;-66
2021/12/28 01:17:24;;;;;;;30.75;6.25;;;8.20;99.90;;;;;;5071566;28;20513;-67
2021/12/28 01:19:50;;;;;;;20.40;4.70;;;8.20;99.90;;;;;;5071927;28;20417;-75
2021/12/28 01:22:16;;;;;;;21.40;5.25;;;8.30;99.90;;;;;;5071182;28;20036;-69
2021/12/28 01:24:42;;;;;;;18.98;5.15;;;8.30;99.90;;;;;;5072042;28;20443;-66
2021/12/28 01:27:08;;;;;;;22.65;5.10;;;8.30;99.90;;;;;;5071383;28;20048;-68
2021/12/28 01:29:34;;;;;;;13.68;4.18;;;8.40;99.90;;;;;;5071688;28;20028;-65
2021/12/28 01:32:00;;;;;;;19.10;4.00;;;8.30;99.90;;;;;;5071565;28;20032;-65
2021/12/28 01:34:25;;;;;;;36.10;4.88;;;8.40;99.90;;;;;;5071111;28;20041;-65
2021/12/28 01:36:51;;;;;;;21.63;5.13;;;8.40;99.90;;;;;;5070714;28;20035;-68
2021/12/28 01:39:17;;;;;;;21.83;4.63;;;8.40;99.90;;;;;;5071067;28;20048;-66
2021/12/28 01:41:43;;;;;;;29.13;4.82;;;8.40;99.90;;;;;;5071168;28;20017;-65
2021/12/28 01:44:11;;;;;;;16.05;3.97;;;8.40;99.90;;;;;;5071283;28;20028;-65
2021/12/28 01:46:38;;;;;;;27.73;5.25;;;8.40;99.90;;;;;;5071501;28;20031;-66
2021/12/28 01:49:06;;;;;;;18.58;5.45;;;8.40;99.90;;;;;;5071395;28;20066;-65
2021/12/28 01:51:34;;;;;;;22.58;4.00;;;8.40;99.90;;;;;;5069203;28;20036;-66
2021/12/28 01:54:01;;;;;;;26.88;3.80;;;8.40;99.90;;;;;;5069815;28;20052;-68
2021/12/28 01:56:28;;;;;;;19.73;4.43;;;8.40;99.90;;;;;;5071047;28;20116;-65
2021/12/28 01:58:55;;;;;;;20.77;3.83;;;8.40;99.90;;;;;;5071406;28;20047;-66
2021/12/28 02:01:21;;;;;;;17.38;4.50;;;8.30;99.90;;;;;;5070631;28;20116;-68
2021/12/28 02:03:47;;;;;;;18.52;3.92;;;8.20;99.90;;;;;;5071404;28;20037;-68
2021/12/28 02:06:13;;;;;;;19.67;3.72;;;8.10;99.90;;;;;;5070651;28;20039;-65
2021/12/28 02:08:40;;;;;;;16.92;5.05;;;8.10;99.90;;;;;;5071312;28;20125;-67
2021/12/28 02:11:07;;;;;;;28.52;6.38;;;8.00;99.90;;;;;;5069294;28;20037;-66
2021/12/28 02:13:33;;;;;;;14.55;4.70;;;8.00;99.90;;;;;;5070756;28;20070;-65
2021/12/28 02:15:59;;;;;;;15.90;3.75;;;8.00;99.90;;;;;;5071102;28;20115;-65
2021/12/28 02:18:27;;;;;;;29.73;3.88;;;8.00;99.90;;;;;;5069064;28;20474;-65
2021/12/28 02:20:54;;;;;;;24.88;4.65;;;8.00;99.90;;;;;;5070576;28;20032;-65
2021/12/28 02:23:20;;;;;;;31.23;5.30;;;8.00;99.90;;;;;;5068967;28;20086;-67
2021/12/28 02:25:46;;;;;;;24.58;3.63;;;8.00;99.90;;;;;;5069466;28;20032;-65
2021/12/28 02:28:14;;;;;;;22.25;4.65;;;8.10;99.90;;;;;;5070248;28;20362;-65
2021/12/28 02:30:42;;;;;;;22.55;3.72;;;8.20;99.90;;;;;;5069142;28;20116;-66
2021/12/28 02:33:09;;;;;;;18.48;3.50;;;8.20;99.90;;;;;;5070630;28;20035;-65
2021/12/28 02:35:35;;;;;;;20.95;4.03;;;8.20;99.90;;;;;;5069961;28;20098;-66
2021/12/28 02:38:02;;;;;;;16.73;4.15;;;8.10;99.90;;;;;;5070348;28;20190;-66
2021/12/28 02:40:30;;;;;;;21.80;4.63;;;8.10;99.90;;;;;;5067829;28;20376;-66
2021/12/28 02:42:57;;;;;;;24.88;3.40;;;8.10;99.90;;;;;;5070628;28;20044;-67
2021/12/28 02:45:29;;;;;;;22.48;3.28;;;8.10;99.90;;;;;;5070049;28;20534;-64
2021/12/28 02:47:55;;;;;;;22.90;3.60;;;8.10;99.90;;;;;;5069043;28;20036;-65
2021/12/28 02:50:34;;;;;;;19.67;3.92;;;8.00;99.90;;;;;;5069661;28;20396;-65
2021/12/28 02:52:59;;;;;;;21.80;4.32;;;8.00;99.90;;;;;;5070044;28;20033;-65
2021/12/28 02:55:28;;;;;;;18.27;4.00;;;8.10;99.90;;;;;;5069935;28;20127;-65
2021/12/28 02:57:59;;;;;;;21.20;3.60;;;8.10;99.90;;;;;;5050246;28;20079;-65
2021/12/28 03:00:31;;;;;;;22.00;3.63;;;8.10;99.90;;;;;;5049768;28;20378;-66
2021/12/28 03:02:58;;;;;;;21.15;4.65;;;8.10;99.90;;;;;;5050047;28;20037;-66
2021/12/28 03:05:23;;;;;;;23.30;3.75;;;8.10;99.90;;;;;;5050044;28;20124;-65
2021/12/28 03:07:49;;;;;;;19.92;3.40;;;8.10;99.90;;;;;;5050024;28;20120;-66
2021/12/28 03:10:14;;;;;;;21.23;3.55;;;8.10;99.90;;;;;;5048611;28;20045;-65
2021/12/28 03:12:40;;;;;;;30.02;3.97;;;8.10;99.90;;;;;;5063039;28;20063;-65
2021/12/28 03:15:06;;;;;;;19.50;3.25;;;8.10;99.90;;;;;;5070428;28;20381;-65
2021/12/28 03:17:31;;;;;;;20.92;3.58;;;8.10;99.90;;;;;;5069912;28;20041;-67
2021/12/28 03:19:57;;;;;;;14.57;3.22;;;8.10;99.90;;;;;;5070197;28;20098;-65
2021/12/28 03:22:23;;;;;;;15.05;2.55;;;8.10;99.90;;;;;;5070024;28;20036;-65
2021/12/28 03:24:48;;;;;;;27.73;3.30;;;8.00;99.90;;;;;;5068945;28;20037;-65
2021/12/28 03:27:14;;;;;;;19.95;5.13;;;8.00;99.90;;;;;;5069851;28;20052;-71
2021/12/28 03:29:39;;;;;;;23.98;4.13;;;8.00;99.90;;;;;;5070499;28;20139;-66
2021/12/28 03:32:05;;;;;;;26.20;3.25;;;7.90;99.90;;;;;;5069811;28;20123;-65
2021/12/28 03:34:31;;;;;;;26.27;4.75;;;7.90;99.90;;;;;;5069281;28;20059;-66
2021/12/28 03:36:56;;;;;;;20.02;3.33;;;7.90;99.90;;;;;;5068643;28;20467;-68
2021/12/28 03:39:22;;;;;;;21.10;3.80;;;8.00;99.90;;;;;;5067558;28;20437;-65
2021/12/28 03:41:47;;;;;;;23.48;4.55;;;8.10;99.90;;;;;;5066788;28;20047;-65
2021/12/28 03:44:14;;;;;;;23.67;3.67;;;8.10;99.90;;;;;;5069715;28;20396;-65
2021/12/28 03:46:40;;;;;;;22.05;3.50;;;8.10;99.90;;;;;;5068694;28;20059;-65
2021/12/28 03:49:06;;;;;;;22.25;5.35;;;8.20;99.90;;;;;;5070047;28;20028;-66
2021/12/28 03:51:32;;;;;;;18.80;3.15;;;8.20;99.90;;;;;;5069277;28;20516;-67
2021/12/28 03:53:57;;;;;;;27.65;3.88;;;8.10;99.90;;;;;;5071370;28;20040;-66
2021/12/28 03:56:23;;;;;;;20.00;4.50;;;8.20;99.90;;;;;;5073623;28;20029;-65
2021/12/28 03:58:50;;;;;;;24.02;3.33;;;8.10;99.90;;;;;;5073087;28;20062;-65
2021/12/28 04:01:22;;;;;;;27.27;4.25;;;8.20;99.90;;;;;;5073013;28;20036;-65
2021/12/28 04:03:47;;;;;;;30.95;3.78;;;8.10;99.90;;;;;;5073583;28;20024;-65
2021/12/28 04:06:13;;;;;;;11.52;3.05;;;8.10;99.90;;;;;;5072977;28;20545;-65
2021/12/28 04:08:42;;;;;;;19.70;3.78;;;8.10;99.90;;;;;;5073197;28;20139;-66
2021/12/28 04:11:25;;;;;;;29.25;4.10;;;8.20;99.90;;;;;;5073126;28;20610;-67
2021/12/28 04:13:53;;;;;;;27.48;3.00;;;8.20;99.90;;;;;;5072860;28;20020;-65
2021/12/28 04:16:19;;;;;;;30.65;3.40;;;8.20;99.90;;;;;;5071114;28;20071;-66
2021/12/28 04:18:46;;;;;;;23.13;3.85;;;8.20;99.90;;;;;;5073430;28;20033;-67
2021/12/28 04:21:12;;;;;;;27.48;3.78;;;8.20;99.90;;;;;;5071333;28;20047;-66
2021/12/28 04:23:38;;;;;;;21.35;5.75;;;8.20;99.90;;;;;;5072654;28;20039;-65
2021/12/28 04:26:04;;;;;;;21.17;2.97;;;8.20;99.90;;;;;;5071599;28;20028;-65
2021/12/28 04:28:31;;;;;;;25.35;4.35;;;8.30;99.90;;;;;;5072412;28;20506;-68
2021/12/28 04:30:56;;;;;;;29.88;3.72;;;8.40;99.90;;;;;;5071610;28;20480;-65
2021/12/28 04:33:22;;;;;;;23.85;3.30;;;8.40;99.90;;;;;;5072792;28;20035;-65
2021/12/28 04:35:48;;;;;;;20.42;2.78;;;8.40;99.90;;;;;;5073201;28;20032;-65
2021/12/28 04:38:14;;;;;;;26.98;4.00;;;8.40;99.90;;;;;;5072345;28;20496;-67
2021/12/28 04:40:40;;;;;;;39.08;3.92;;;8.40;99.90;;;;;;5072763;28;20028;-65
2021/12/28 04:43:07;;;;;;;22.15;4.03;;;8.50;99.90;;;;;;5072275;28;20025;-65
2021/12/28 04:45:36;;;;;;;19.65;2.75;;;8.50;99.90;;;;;;5072565;28;20045;-66
2021/12/28 04:48:02;;;;;;;22.98;4.65;;;8.50;99.90;;;;;;5072935;28;20035;-65
2021/12/28 04:50:28;;;;;;;20.55;3.97;;;8.50;99.90;;;;;;5072005;28;20037;-66
2021/12/28 04:52:57;;;;;;;26.80;4.70;;;8.50;99.90;;;;;;5072467;28;20059;-65
2021/12/28 04:55:22;;;;;;;21.48;4.00;;;8.50;99.90;;;;;;5071850;28;20171;-65
2021/12/28 04:57:48;;;;;;;28.00;3.53;;;8.50;99.90;;;;;;5072264;28;20119;-65
2021/12/28 05:00:21;;;;;;;21.02;4.57;;;8.60;99.90;;;;;;5071706;28;20388;-65
2021/12/28 05:02:47;;;;;;;18.42;2.92;;;8.60;99.90;;;;;;5072540;28;20491;-65
2021/12/28 05:05:13;;;;;;;26.52;3.78;;;8.60;99.90;;;;;;5071174;28;20119;-65
2021/12/28 05:07:39;;;;;;;25.45;3.70;;;8.60;99.90;;;;;;5072245;28;20400;-66
2021/12/28 05:10:06;;;;;;;22.85;4.57;;;8.60;99.90;;;;;;5072190;28;20468;-65
2021/12/28 05:12:33;;;;;;;26.67;4.63;;;8.70;99.90;;;;;;5071680;28;20040;-66
2021/12/28 05:15:00;;;;;;;19.48;2.88;;;8.70;99.90;;;;;;5072203;28;20396;-67
2021/12/28 05:17:26;;;;;;;20.77;3.58;;;8.80;99.90;;;;;;5071455;28;20033;-65
2021/12/28 05:19:52;;;;;;;18.70;3.53;;;8.80;99.90;;;;;;5072235;28;20028;-65
2021/12/28 05:22:18;;;;;;;18.55;3.10;;;8.70;99.90;;;;;;5071557;28;20399;-67
2021/12/28 05:24:43;;;;;;;19.08;2.58;;;8.80;99.90;;;;;;5071539;28;20090;-67
2021/12/28 05:27:09;;;;;;;20.27;3.58;;;8.80;99.90;;;;;;5071040;28;20037;-68
2021/12/28 05:29:35;;;;;;;13.20;3.10;;;8.80;99.90;;;;;;5071656;28;20120;-65
2021/12/28 05:32:01;;;;;;;13.13;2.78;;;8.80;99.90;;;;;;5070500;28;20029;-65
2021/12/28 05:34:26;;;;;;;24.77;3.83;;;8.80;99.90;;;;;;5069623;28;20044;-66
2021/12/28 05:36:52;;;;;;;16.35;3.03;;;8.80;99.90;;;;;;5071721;28;20031;-67
2021/12/28 05:39:17;;;;;;;20.70;2.40;;;8.80;99.90;;;;;;5069640;28;20154;-65
2021/12/28 05:41:43;;;;;;;14.27;3.08;;;8.90;99.90;;;;;;5071318;28;20119;-65
2021/12/28 05:44:09;;;;;;;23.52;3.28;;;8.90;99.90;;;;;;5071290;28;20082;-68
2021/12/28 05:46:34;;;;;;;20.75;2.72;;;8.90;99.90;;;;;;5071542;28;20028;-67
2021/12/28 05:49:00;;;;;;;11.43;2.03;;;8.90;99.90;;;;;;5071200;28;20524;-66
2021/12/28 05:51:26;;;;;;;21.90;2.33;;;8.90;99.90;;;;;;5068890;28;20452;-65
2021/12/28 05:53:51;;;;;;;22.70;2.92;;;8.90;99.90;;;;;;5071514;28;20049;-65
2021/12/28 05:56:17;;;;;;;23.55;2.60;;;8.90;99.90;;;;;;5069842;28;20017;-67
2021/12/28 05:58:43;;;;;;;20.48;3.40;;;8.90;99.90;;;;;;5071374;28;20025;-65
2021/12/28 06:01:09;;;;;;;19.55;3.22;;;8.90;99.90;;;;;;5070846;28;20047;-65
2021/12/28 06:03:34;;;;;;;25.13;3.30;;;8.90;99.90;;;;;;5069771;28;20025;-66
2021/12/28 06:06:00;;;;;;;17.50;2.08;;;8.90;99.90;;;;;;5071392;28;20021;-65
2021/12/28 06:08:26;;;;;;;17.25;3.30;;;8.90;99.90;;;;;;5070461;28;20027;-66
2021/12/28 06:10:52;;;;;;;24.77;2.78;;;9.00;99.90;;;;;;5069245;28;20032;-66
2021/12/28 06:13:18;;;;;;;20.90;3.30;;;9.00;99.90;;;;;;5068987;28;20032;-66
2021/12/28 06:15:44;;;;;;;10.98;2.78;;;9.00;99.90;;;;;;5068897;28;20442;-68
2021/12/28 06:18:10;;;;;;;25.63;3.63;;;9.00;99.90;;;;;;5068940;28;20063;-65
2021/12/28 06:20:35;;;;;;;26.77;3.35;;;9.00;99.90;;;;;;5069408;28;20037;-65
2021/12/28 06:23:01;;;;;;;19.88;2.60;;;9.10;99.90;;;;;;5069517;28;20086;-66
2021/12/28 06:25:26;;;;;;;17.95;3.67;;;9.10;99.90;;;;;;5070181;28;20040;-69
2021/12/28 06:27:52;;;;;;;13.48;1.95;;;9.10;99.90;;;;;;5070466;28;20071;-66
2021/12/28 06:30:18;;;;;;;16.40;2.63;;;9.10;99.90;;;;;;5070064;28;20041;-65
2021/12/28 06:32:43;;;;;;;27.27;3.08;;;9.10;99.90;;;;;;5070921;28;20372;-66
2021/12/28 06:35:10;;;;;;;20.58;2.78;;;9.10;99.90;;;;;;5070236;28;20229;-68
2021/12/28 06:37:36;;;;;;;17.17;3.00;;;9.10;99.90;;;;;;5070595;28;20062;-65
2021/12/28 06:40:03;;;;;;;22.73;2.72;;;9.10;99.90;;;;;;5070389;28;20116;-68
2021/12/28 06:42:28;;;;;;;17.15;3.05;;;9.10;99.90;;;;;;5068452;28;20033;-66
2021/12/28 06:44:55;;;;;;;15.80;2.40;;;9.10;99.90;;;;;;5070452;28;20040;-67
2021/12/28 06:47:21;;;;;;;11.27;1.58;;;9.10;99.90;;;;;;5068664;28;20123;-66
2021/12/28 06:49:46;;;;;;;16.38;2.38;;;9.10;99.90;;;;;;5069181;28;20119;-68
2021/12/28 06:52:13;;;;;;;10.25;2.28;;;9.10;99.90;;;;;;5068420;28;20037;-65
2021/12/28 06:54:39;;;;;;;15.05;2.17;;;9.10;99.90;;;;;;5068415;28;20049;-65
2021/12/28 06:57:10;;;;;;;14.38;3.30;;;9.10;99.90;;;;;;5070437;28;22044;-66
2021/12/28 06:59:37;;;;;;;20.17;3.88;;;9.10;99.90;;;;;;5069906;28;20040;-66
2021/12/28 07:02:05;;;;;;;14.23;2.63;;;9.10;99.90;;;;;;5068545;28;20051;-67
2021/12/28 07:04:30;;;;;;;16.17;2.47;;;9.10;99.90;;;;;;5069970;28;20058;-66
2021/12/28 07:06:56;;;;;;;15.35;2.63;;;9.10;99.90;;;;;;5070195;28;20484;-65
2021/12/28 07:09:22;;;;;;;14.27;3.05;;;9.10;99.90;;;;;;5069850;28;20492;-66
2021/12/28 07:11:47;;;;;;;12.05;3.83;;;9.20;99.90;;;;;;5069940;28;20036;-65
2021/12/28 07:14:13;;;;;;;18.33;2.85;;;9.20;99.90;;;;;;5068775;28;20036;-65
2021/12/28 07:16:38;;;;;;;15.35;2.33;;;9.20;99.90;;;;;;5070157;28;20037;-66
2021/12/28 07:19:09;;;;;;;13.13;2.47;;;9.20;99.90;;;;;;5070036;28;20506;-69
2021/12/28 07:21:39;;;;;;;16.73;2.53;;;9.20;99.90;;;;;;5069574;28;20094;-66
2021/12/28 07:24:06;;;;;;;15.73;3.17;;;9.20;99.90;;;;;;5069887;28;20031;-68
2021/12/28 07:26:32;;;;;;;14.80;2.15;;;9.20;99.90;;;;;;5069071;28;20488;-68
2021/12/28 07:28:57;;;;;;;13.88;3.03;;;9.30;99.90;;;;;;5073667;28;20025;-66
2021/12/28 07:31:23;;;;;;;12.10;3.50;;;9.20;99.90;;;;;;5073078;28;20029;-66
2021/12/28 07:33:49;;;;;;;14.55;2.80;;;9.20;99.90;;;;;;5073805;28;20400;-67
2021/12/28 07:36:15;;;;;;;14.73;2.90;;;9.20;99.90;;;;;;5073155;28;20059;-65
2021/12/28 07:38:41;;;;;;;12.48;2.15;;;9.30;99.90;;;;;;5072368;28;20045;-66
2021/12/28 07:41:07;;;;;;;15.80;2.75;;;9.30;99.90;;;;;;5073629;28;20025;-66
2021/12/28 07:43:33;;;;;;;12.18;2.13;;;9.30;99.90;;;;;;5068871;28;20039;-66
2021/12/28 07:45:59;;;;;;;12.13;2.42;;;9.30;99.90;;;;;;5073840;28;20040;-67
2021/12/28 07:48:24;;;;;;;15.25;2.80;;;9.30;99.90;;;;;;5071814;28;20040;-66
2021/12/28 07:50:50;;;;;;;10.55;2.40;;;9.30;99.90;;;;;;5071979;28;20032;-69
2021/12/28 07:53:15;;;;;;;9.05;2.20;;;9.30;99.90;;;;;;5071694;28;20078;-65
2021/12/28 07:55:41;;;;;;;8.30;2.20;;;9.30;99.90;;;;;;5073546;28;20400;-65
2021/12/28 07:58:07;;;;;;;10.23;2.85;;;9.30;99.90;;;;;;5073427;28;20067;-68
2021/12/28 08:00:33;;;;;;;13.27;3.05;;;9.30;99.90;;;;;;5071352;28;20623;-66
2021/12/28 08:03:00;;;;;;;9.05;2.90;;;9.30;99.90;;;;;;5071752;28;20032;-66
2021/12/28 08:05:26;;;;;;;14.13;2.78;;;9.30;99.90;;;;;;5071828;28;20068;-66
2021/12/28 08:07:51;;;;;;;7.93;3.13;;;9.30;99.90;;;;;;5072297;28;20102;-66
2021/12/28 08:10:21;;;;;;;6.88;2.28;;;9.30;99.90;;;;;;5071387;28;20380;-70
2021/12/28 08:12:47;;;;;;;4.90;2.00;;;9.30;99.90;;;;;;5070860;28;20178;-66
2021/12/28 08:15:13;;;;;;;10.50;2.78;;;9.40;99.90;;;;;;5071174;28;20127;-66
2021/12/28 08:17:38;;;;;;;9.55;2.20;;;9.40;99.90;;;;;;5071237;28;20487;-67
2021/12/28 08:20:06;;;;;;;6.18;2.60;;;9.40;99.90;;;;;;5071152;28;20037;-75
2021/12/28 08:22:32;;;;;;;8.13;2.28;;;9.40;99.90;;;;;;5068003;28;20079;-68
2021/12/28 08:24:59;;;;;;;8.50;2.53;;;9.40;99.90;;;;;;5071420;28;20057;-67
2021/12/28 08:27:26;;;;;;;12.90;2.38;;;9.40;99.90;;;;;;5071001;28;20044;-66
2021/12/28 08:29:52;;;;;;;7.20;2.38;;;9.40;99.90;;;;;;5069828;28;20024;-66
2021/12/28 08:32:17;;;;;;;6.30;2.33;;;9.40;99.90;;;;;;5069515;28;20133;-66
2021/12/28 08:34:43;;;;;;;6.78;2.58;;;9.50;99.90;;;;;;5071446;28;20439;-67
2021/12/28 08:37:09;;;;;;;9.80;2.53;;;9.50;99.90;;;;;;5071508;28;20036;-69
2021/12/28 08:39:36;;;;;;;9.65;3.35;;;9.40;99.90;;;;;;5066682;28;20056;-66
2021/12/28 08:42:02;;;;;;;12.27;2.85;;;9.50;99.90;;;;;;5070970;28;20028;-67
2021/12/28 08:44:28;;;;;;;8.57;2.60;;;9.50;99.90;;;;;;5071074;28;20039;-70
2021/12/28 08:46:54;;;;;;;11.85;2.92;;;9.50;99.90;;;;;;5071549;28;20391;-67
2021/12/28 08:49:20;;;;;;;10.25;2.40;;;9.50;99.90;;;;;;5070869;28;20492;-69
2021/12/28 08:51:45;;;;;;;7.75;2.70;;;9.50;99.90;;;;;;5069631;28;20119;-69
2021/12/28 08:54:11;;;;;;;9.32;2.78;;;9.50;99.90;;;;;;5070890;28;20040;-66
2021/12/28 08:56:37;;;;;;;11.90;2.95;;;9.50;99.90;;;;;;5070843;28;20040;-66
2021/12/28 08:59:03;;;;;;;9.00;3.13;;;9.50;99.90;;;;;;5069788;28;20136;-67
2021/12/28 09:01:29;;;;;;;6.55;2.60;;;9.50;99.90;;;;;;5066305;28;20032;-68
2021/12/28 09:03:54;;;;;;;10.80;3.28;;;9.50;99.90;;;;;;5066797;28;20036;-66
2021/12/28 09:06:20;;;;;;;5.90;2.83;;;9.50;99.90;;;;;;5070089;28;20021;-66
2021/12/28 09:08:46;;;;;;;10.75;3.30;;;9.50;99.90;;;;;;5071250;28;20039;-67
2021/12/28 09:11:12;;;;;;;9.75;3.20;;;9.60;99.90;;;;;;5069501;28;20025;-69
2021/12/28 09:13:38;;;;;;;8.73;2.88;;;9.60;99.90;;;;;;5068112;28;20605;-67
2021/12/28 09:16:05;;;;;;;6.97;3.40;;;9.60;99.90;;;;;;5071018;28;20127;-66
2021/12/28 09:18:31;;;;;;;9.13;3.22;;;9.60;99.90;;;;;;5070997;28;20044;-65
2021/12/28 09:20:57;;;;;;;9.27;3.55;;;9.60;99.90;;;;;;5069837;28;20183;-66
2021/12/28 09:23:23;;;;;;;7.43;3.40;;;9.60;99.90;;;;;;5071464;28;20509;-66
2021/12/28 09:25:49;;;;;;;9.35;3.22;;;9.60;99.90;;;;;;5070599;28;20040;-65
2021/12/28 09:28:15;;;;;;;6.57;3.03;;;9.60;99.90;;;;;;5071370;28;20029;-65
2021/12/28 09:30:42;;;;;;;8.73;3.25;;;9.60;99.90;;;;;;5071463;28;20046;-65
2021/12/28 09:33:08;;;;;;;7.55;3.83;;;9.60;99.90;;;;;;5070424;28;20032;-65
2021/12/28 09:35:34;;;;;;;7.30;3.30;;;9.70;99.90;;;;;;5071219;28;20060;-66
2021/12/28 09:38:00;;;;;;;6.60;3.67;;;9.70;99.90;;;;;;5071909;28;20056;-65
2021/12/28 09:40:26;;;;;;;8.15;3.65;;;9.70;99.90;;;;;;5070899;28;20062;-65
2021/12/28 09:42:52;;;;;;;12.88;3.72;;;9.70;99.90;;;;;;5070843;28;20188;-65
2021/12/28 09:45:18;;;;;;;10.30;4.10;;;9.80;99.90;;;;;;5071061;28;20147;-69
2021/12/28 09:47:43;;;;;;;9.73;4.45;;;9.80;99.90;;;;;;5071918;28;20025;-69
2021/12/28 09:50:13;;;;;;;7.30;3.90;;;9.90;99.90;;;;;;5071077;28;20037;-65
2021/12/28 09:52:40;;;;;;;8.63;3.53;;;9.90;99.90;;;;;;5070372;28;20047;-66
2021/12/28 09:55:07;;;;;;;9.18;4.18;;;9.90;99.90;;;;;;5071479;28;20144;-67
2021/12/28 09:57:33;;;;;;;9.25;3.90;;;9.90;99.90;;;;;;5071351;28;20050;-65
2021/12/28 09:59:59;;;;;;;6.97;3.35;;;10.00;99.90;;;;;;5070776;28;20638;-69
2021/12/28 10:02:25;;;;;;;7.13;3.70;;;10.00;99.90;;;;;;5070072;28;20060;-65
2021/12/28 10:04:58;;;;;;;6.97;3.85;;;10.00;99.90;;;;;;5071054;28;20060;-66
2021/12/28 10:07:29;;;;;;;8.48;4.00;;;10.00;99.90;;;;;;5070238;28;20036;-66
2021/12/28 10:09:56;;;;;;;8.13;4.28;;;10.00;99.90;;;;;;5068937;28;20064;-67
2021/12/28 10:12:32;;;;;;;9.13;4.22;;;10.00;99.90;;;;;;5070301;28;20396;-66
2021/12/28 10:15:00;;;;;;;8.85;3.78;;;10.00;99.90;;;;;;5070058;28;20059;-67
2021/12/28 10:17:28;;;;;;;8.38;4.10;;;10.00;99.90;;;;;;5070032;28;20025;-65
2021/12/28 10:19:55;;;;;;;7.78;3.90;;;10.00;99.90;;;;;;5069962;28;20488;-66
2021/12/28 10:22:29;;;;;;;8.52;4.20;;;10.00;99.90;;;;;;5070034;28;20025;-66
2021/12/28 10:25:09;;;;;;;9.75;3.75;;;10.00;99.90;;;;;;5070356;28;20036;-66
2021/12/28 10:27:37;;;;;;;7.45;3.67;;;10.00;99.90;;;;;;5065420;28;20384;-66
2021/12/28 10:30:28;;;;;;;8.02;3.97;;;10.00;99.90;;;;;;5070052;28;20029;-66
2021/12/28 10:32:57;;;;;;;6.05;3.35;;;10.00;99.90;;;;;;5070237;28;20381;-66
2021/12/28 10:35:28;;;;;;;5.88;3.45;;;10.00;99.90;;;;;;5069921;28;20055;-67
2021/12/28 10:37:58;;;;;;;6.72;3.58;;;10.00;99.90;;;;;;5070314;28;20085;-66
2021/12/28 10:40:33;;;;;;;6.83;3.63;;;10.00;99.90;;;;;;5068220;28;20442;-66
2021/12/28 10:43:04;;;;;;;7.75;3.13;;;10.10;99.90;;;;;;5066370;28;20111;-67
2021/12/28 10:45:38;;;;;;;;;;;10.10;99.90;;;;;;5066370;28;20116;-66
2021/12/28 10:48:14;;;;;;;7.43;3.53;;;10.10;99.90;;;;;;5066066;28;20013;-66
2021/12/28 10:50:43;;;;;;;10.55;3.15;;;10.10;99.90;;;;;;5069324;28;20484;-66
2021/12/28 10:53:17;;;;;;;6.80;3.00;;;10.20;99.90;;;;;;5069244;28;20044;-66
2021/12/28 10:55:44;;;;;;;7.13;3.10;;;10.10;99.90;;;;;;5065621;28;20044;-67
2021/12/28 10:58:18;;;;;;;6.55;2.63;;;10.10;99.90;;;;;;5064260;28;20035;-66
2021/12/28 11:00:44;;;;;;;5.22;2.90;;;10.20;99.90;;;;;;5059858;28;20047;-69
2021/12/28 11:03:28;;;;;;;5.25;2.13;;;10.20;99.90;;;;;;5058616;28;20041;-71
2021/12/28 11:05:56;;;;;;;4.63;2.38;;;10.10;99.90;;;;;;5066315;28;20036;-68
2021/12/28 11:08:24;;;;;;;3.80;1.70;;;10.10;99.90;;;;;;5061264;28;20136;-65
2021/12/28 11:10:53;;;;;;;4.60;2.10;;;10.20;99.90;;;;;;5062551;28;20047;-66
2021/12/28 11:13:22;;;;;;;4.53;1.98;;;10.20;99.90;;;;;;5063432;28;20037;-67
2021/12/28 11:15:48;;;;;;;3.22;1.88;;;10.20;99.90;;;;;;5064922;28;20036;-66
2021/12/28 11:18:19;;;;;;;2.15;1.45;;;10.20;99.90;;;;;;5062626;28;20037;-67
2021/12/28 11:20:45;;;;;;;2.72;1.10;;;10.30;99.90;;;;;;5064616;28;20036;-67
2021/12/28 11:23:14;;;;;;;6.40;1.48;;;10.20;99.90;;;;;;5063377;28;20040;-67
2021/12/28 11:25:39;;;;;;;2.22;0.90;;;10.30;99.90;;;;;;5063114;28;20037;-67
2021/12/28 11:28:13;;;;;;;5.18;1.73;;;10.30;99.90;;;;;;5062271;28;20120;-67
2021/12/28 11:30:40;;;;;;;3.22;1.23;;;10.20;99.90;;;;;;5064362;28;20506;-67
2021/12/28 11:33:08;;;;;;;1.55;0.80;;;10.20;99.90;;;;;;5064376;28;20101;-67
2021/12/28 11:35:34;;;;;;;3.47;1.40;;;10.20;99.90;;;;;;5060178;28;20396;-68
2021/12/28 11:38:01;;;;;;;9.05;1.85;;;10.10;99.90;;;;;;5063534;28;20041;-68
2021/12/28 11:40:27;;;;;;;4.13;1.30;;;10.20;99.90;;;;;;5063948;28;20028;-66
2021/12/28 11:42:53;;;;;;;4.65;1.10;;;10.10;99.90;;;;;;5064360;28;20027;-67
2021/12/28 11:45:20;;;;;;;4.18;1.25;;;10.10;99.90;;;;;;5062656;28;20052;-67
2021/12/28 11:47:45;;;;;;;4.40;1.40;;;10.10;99.90;;;;;;5067316;28;20047;-66
2021/12/28 11:50:11;;;;;;;8.85;2.78;;;10.10;99.90;;;;;;5060126;28;20041;-66
2021/12/28 11:52:37;;;;;;;1.98;1.20;;;10.00;99.90;;;;;;5063461;28;20040;-66
2021/12/28 11:55:03;;;;;;;2.72;1.45;;;10.00;99.90;;;;;;5063527;28;20040;-67
2021/12/28 11:57:32;;;;;;;3.75;1.75;;;10.00;99.90;;;;;;5064149;28;20025;-66
2021/12/28 12:00:10;;;;;;;2.53;1.15;;;10.00;99.90;;;;;;5063893;28;20470;-65
2021/12/28 12:02:49;;;;;;;3.40;1.60;;;9.90;99.90;;;;;;5059602;28;20768;-65
2021/12/28 12:05:23;;;;;;;4.03;0.88;;;10.00;99.90;;;;;;5065050;28;20042;-65
2021/12/28 12:08:07;;;;;;;2.30;1.15;;;10.00;99.90;;;;;;5063124;28;20031;-65
2021/12/28 12:10:35;;;;;;;1.98;0.45;;;10.00;99.90;;;;;;5065606;28;20048;-65
2021/12/28 12:13:05;;;;;;;5.25;0.85;;;10.00;99.90;;;;;;5061510;28;20391;-65
2021/12/28 12:15:37;;;;;;;3.77;0.70;;;10.00;99.90;;;;;;5065104;28;20478;-65
2021/12/28 12:18:02;;;;;;;8.63;1.60;;;9.90;99.90;;;;;;5067241;28;20500;-67
2021/12/28 12:20:33;;;;;;;6.65;0.65;;;9.80;99.90;;;;;;5064070;28;20121;-65
2021/12/28 12:23:06;;;;;;;5.38;1.33;;;9.70;99.90;;;;;;5068030;28;20488;-66
2021/12/28 12:25:46;;;;;;;6.72;1.27;;;9.60;99.90;;;;;;5062698;28;20080;-65
2021/12/28 12:28:12;;;;;;;6.85;1.20;;;9.50;99.90;;;;;;5068340;28;20048;-66
2021/12/28 12:30:50;;;;;;;10.25;0.90;;;9.30;99.90;;;;;;5064316;28;20047;-66
2021/12/28 12:33:17;;;;;;;9.18;1.48;;;9.30;99.90;;;;;;5069678;28;20037;-66
2021/12/28 12:35:57;;;;;;;8.32;1.08;;;9.20;99.90;;;;;;5064766;28;20075;-65
2021/12/28 12:38:23;;;;;;;7.03;1.10;;;9.20;99.90;;;;;;5065262;28;20025;-65
2021/12/28 12:41:07;;;;;;;14.18;2.25;;;9.20;99.90;;;;;;5066075;28;20056;-65
2021/12/28 12:43:38;;;;;;;12.82;1.27;;;9.20;99.90;;;;;;5066029;28;20488;-65
2021/12/28 12:46:12;;;;;;;23.42;2.30;;;9.20;99.90;;;;;;5065707;28;20518;-66
2021/12/28 12:48:41;;;;;;;10.60;2.15;;;9.20;99.90;;;;;;5067815;28;20048;-64
2021/12/28 12:51:21;;;;;;;16.23;2.55;;;9.30;99.90;;;;;;5065768;28;20055;-65